Time;durP1;ratioP1;P1;durP2;ratioP2;P2;SDS_P1;SDS_P2;PMS_P1;PMS_P2;Temp;Humidity;BMP_temperature;BMP_pressure;BME280_temperature;BME280_humidity;BME280_pressure;Samples;Min_cycle;Max_cycle;Signal;HPM_P1;HPM_P2
2021/09/25 00:02:14;;;;;;;;;17.25;16.75;;;;;15.05;66.40;100520.25;5057201;28;45268;-82
2021/09/25 00:04:39;;;;;;;;;23.00;19.00;;;;;15.00;66.61;100524.13;5053136;28;46026;-82
2021/09/25 00:07:04;;;;;;;;;18.50;17.50;;;;;14.94;66.44;100524.59;5051741;28;45278;-83
2021/09/25 00:09:29;;;;;;;;;20.75;20.75;;;;;14.91;66.63;100519.47;5038788;28;45170;-83
2021/09/25 00:11:55;;;;;;;;;24.75;21.00;;;;;14.93;66.77;100525.56;5037624;28;45280;-83
2021/09/25 00:14:20;;;;;;;;;21.00;21.00;;;;;14.92;66.82;100521.19;5038654;28;45258;-82
2021/09/25 00:16:46;;;;;;;;;20.75;20.75;;;;;14.92;66.88;100528.34;5030395;28;45229;-83
2021/09/25 00:19:11;;;;;;;;;22.50;21.00;;;;;14.89;67.14;100516.06;5056277;28;45450;-82
2021/09/25 00:21:37;;;;;;;;;21.00;20.50;;;;;14.87;67.28;100515.31;5056755;28;45274;-82
2021/09/25 00:24:03;;;;;;;;;23.00;20.00;;;;;14.89;67.31;100531.28;5056342;28;46127;-82
2021/09/25 00:26:28;;;;;;;;;27.00;24.50;;;;;14.86;67.50;100520.78;5048194;28;45212;-83
2021/09/25 00:28:54;;;;;;;;;24.00;21.75;;;;;14.84;67.53;100512.88;5037479;28;45462;-82
2021/09/25 00:31:20;;;;;;;;;28.50;27.50;;;;;14.85;67.70;100519.94;5037608;28;45270;-83
2021/09/25 00:33:45;;;;;;;;;26.25;24.00;;;;;14.79;67.83;100507.00;5036519;28;46140;-87
2021/09/25 00:36:11;;;;;;;;;22.50;21.00;;;;;14.87;67.83;100520.69;5041777;28;45199;-86
2021/09/25 00:38:37;;;;;;;;;26.00;23.75;;;;;14.73;67.24;100508.31;5049731;28;45323;-86
2021/09/25 00:41:04;;;;;;;;;27.00;24.50;;;;;14.74;67.28;100514.53;5021785;28;45389;-86
2021/09/25 00:43:30;;;;;;;;;27.00;24.00;;;;;14.61;67.58;100509.19;5046888;28;46376;-87
2021/09/25 00:45:55;;;;;;;;;22.75;22.75;;;;;14.64;67.89;100514.34;5037496;28;45249;-86
2021/09/25 00:48:21;;;;;;;;;24.25;22.75;;;;;14.66;68.36;100529.31;5053091;28;45471;-88
2021/09/25 00:50:46;;;;;;;;;26.00;22.25;;;;;14.55;68.59;100513.16;5050395;28;45270;-88
2021/09/25 00:53:11;;;;;;;;;27.00;24.50;;;;;14.65;68.06;100537.44;5051905;28;45437;-87
2021/09/25 00:55:37;;;;;;;;;19.75;19.75;;;;;14.62;68.32;100526.97;5038509;28;45251;-88
2021/09/25 00:58:04;;;;;;;;;27.25;25.00;;;;;14.60;67.72;100531.56;5032046;28;45287;-87
2021/09/25 01:00:32;;;;;;;;;20.25;20.25;;;;;14.49;67.64;100519.81;5054601;28;45302;-86
2021/09/25 01:02:57;;;;;;;;;20.25;20.00;;;;;14.45;67.56;100518.31;5038208;28;48193;-87
2021/09/25 01:05:23;;;;;;;;;20.50;18.50;;;;;14.49;67.64;100527.84;5048088;28;45196;-86
2021/09/25 01:07:50;;;;;;;;;27.25;21.50;;;;;14.45;67.98;100525.47;5018057;28;45479;-87
2021/09/25 01:10:17;;;;;;;;;19.00;19.00;;;;;14.38;68.12;100527.75;5036148;28;45487;-87
2021/09/25 01:12:43;;;;;;;;;24.25;21.25;;;;;14.37;68.29;100533.22;5018811;28;48450;-87
2021/09/25 01:15:09;;;;;;;;;19.25;19.00;;;;;14.33;68.34;100530.75;5035140;28;45386;-87
2021/09/25 01:17:34;;;;;;;;;21.75;21.25;;;;;14.18;68.31;100507.78;5056344;28;45282;-86
2021/09/25 01:20:00;;;;;;;;;25.25;22.50;;;;;14.18;68.59;100502.44;5030008;28;45207;-87
2021/09/25 01:22:27;;;;;;;;;23.25;21.50;;;;;14.07;68.64;100488.97;5016176;28;46212;-87
2021/09/25 01:24:53;;;;;;;;;26.50;23.75;;;;;14.18;68.86;100506.91;5015867;28;45264;-87
2021/09/25 01:27:18;;;;;;;;;22.75;21.00;;;;;14.21;68.66;100515.59;5016030;28;45220;-87
2021/09/25 01:29:43;;;;;;;;;20.50;20.25;;;;;14.11;68.85;100495.84;5046370;28;45285;-86
2021/09/25 01:32:09;;;;;;;;;23.25;21.50;;;;;14.10;68.89;100499.47;5035854;28;46257;-87
2021/09/25 01:34:35;;;;;;;;;22.25;21.00;;;;;14.18;68.88;100514.94;5036429;28;45408;-87
2021/09/25 01:37:02;;;;;;;;;24.75;23.50;;;;;14.06;69.04;100493.47;5039229;28;45313;-87
2021/09/25 01:39:28;;;;;;;;;21.75;20.25;;;;;14.10;68.92;100502.97;5051039;28;45234;-85
2021/09/25 01:41:53;;;;;;;;;21.50;20.50;;;;;14.03;68.92;100492.84;5036362;28;45617;-86
2021/09/25 01:44:22;;;;;;;;;23.25;23.25;;;;;14.08;68.94;100502.25;5035649;28;45177;-86
2021/09/25 01:46:47;;;;;;;;;18.75;18.00;;;;;13.97;68.83;100481.59;5035677;28;45332;-87
2021/09/25 01:49:13;;;;;;;;;20.25;20.25;;;;;14.01;68.73;100486.72;5035413;28;45297;-87
2021/09/25 01:51:38;;;;;;;;;23.00;19.75;;;;;13.95;68.77;100478.19;5041805;28;45377;-87
2021/09/25 01:54:05;;;;;;;;;22.00;20.00;;;;;13.97;68.73;100486.94;5037927;28;45469;-86
2021/09/25 01:56:30;;;;;;;;;25.25;21.75;;;;;13.86;69.04;100478.00;5054014;28;45311;-86
2021/09/25 01:58:56;;;;;;;;;24.75;24.75;;;;;13.74;68.96;100461.00;5056061;28;45313;-86
2021/09/25 02:01:21;;;;;;;;;23.25;22.25;;;;;13.80;69.23;100471.25;5030089;28;47110;-87
2021/09/25 02:03:47;;;;;;;;;25.75;22.00;;;;;13.83;69.52;100484.41;5020260;28;45809;-87
2021/09/25 02:06:12;;;;;;;;;24.50;20.75;;;;;13.86;69.16;100480.66;5051720;28;45220;-86
2021/09/25 02:08:39;;;;;;;;;22.50;21.25;;;;;13.67;69.22;100449.88;5027332;28;45179;-86
2021/09/25 02:11:05;;;;;;;;;20.00;20.00;;;;;13.79;68.99;100472.22;5021105;28;46219;-86
2021/09/25 02:13:32;;;;;;;;;19.75;18.75;;;;;13.71;68.92;100470.09;5020536;28;45269;-87
2021/09/25 02:15:58;;;;;;;;;20.25;19.75;;;;;13.71;69.01;100472.75;5035879;28;45444;-87
2021/09/25 02:18:23;;;;;;;;;21.00;20.00;;;;;13.56;68.80;100453.28;5057072;28;45341;-86
2021/09/25 02:20:49;;;;;;;;;21.25;19.75;;;;;13.63;69.10;100478.63;5040367;28;48121;-87
2021/09/25 02:23:14;;;;;;;;;18.75;18.00;;;;;13.46;68.79;100450.41;5057627;28;45902;-87
2021/09/25 02:25:40;;;;;;;;;19.25;18.50;;;;;13.54;69.12;100468.59;5057196;28;45197;-87
2021/09/25 02:28:05;;;;;;;;;21.75;20.50;;;;;13.40;68.77;100453.50;5040470;28;45271;-87
2021/09/25 02:30:31;;;;;;;;;20.50;18.75;;;;;13.41;68.97;100460.56;5040265;28;48289;-87
2021/09/25 02:32:56;;;;;;;;;22.00;22.00;;;;;13.33;69.42;100443.34;5040399;28;45606;-86
2021/09/25 02:35:22;;;;;;;;;22.75;22.50;;;;;13.53;69.43;100479.38;5040286;28;45223;-87
2021/09/25 02:37:49;;;;;;;;;23.25;23.25;;;;;13.33;69.38;100449.50;5058407;28;45156;-87
2021/09/25 02:40:16;;;;;;;;;24.50;23.00;;;;;13.49;69.71;100473.38;5040061;28;48306;-86
2021/09/25 02:42:42;;;;;;;;;25.00;22.50;;;;;13.48;69.68;100479.66;5064503;28;45505;-87
2021/09/25 02:45:09;;;;;;;;;21.50;20.75;;;;;13.44;69.49;100481.72;5060844;28;45105;-86
2021/09/25 02:47:34;;;;;;;;;25.75;23.75;;;;;13.42;69.67;100466.75;5060661;28;45786;-86
2021/09/25 02:50:00;;;;;;;;;28.50;25.75;;;;;13.40;69.73;100468.69;5078444;28;45218;-86
2021/09/25 02:52:26;;;;;;;;;28.50;24.25;;;;;13.24;69.73;100443.00;5078429;28;45288;-88
2021/09/25 02:54:52;;;;;;;;;25.25;24.50;;;;;13.17;69.86;100435.50;5060249;28;45231;-87
2021/09/25 02:57:17;;;;;;;;;27.25;24.50;;;;;13.26;70.15;100443.72;5078328;28;45647;-86
2021/09/25 02:59:43;;;;;;;;;25.25;24.25;;;;;13.22;70.16;100442.22;5078613;28;45220;-87
2021/09/25 03:02:08;;;;;;;;;29.25;25.25;;;;;13.33;70.46;100460.19;5078208;28;45235;-87
2021/09/25 03:04:33;;;;;;;;;24.25;22.50;;;;;13.25;70.32;100439.38;5060107;28;45208;-86
2021/09/25 03:06:58;;;;;;;;;26.50;24.00;;;;;13.30;70.21;100444.41;5078401;28;45256;-87
2021/09/25 03:09:24;;;;;;;;;30.50;26.50;;;;;13.40;70.57;100456.19;5060032;28;47201;-87
2021/09/25 03:11:49;;;;;;;;;29.75;27.25;;;;;13.38;70.89;100452.78;5077950;28;45306;-87
2021/09/25 03:14:15;;;;;;;;;29.25;29.25;;;;;13.42;70.88;100467.59;5078557;28;45171;-87
2021/09/25 03:16:41;;;;;;;;;29.50;26.75;;;;;13.38;70.70;100452.78;5076284;28;45138;-86
2021/09/25 03:19:06;;;;;;;;;34.25;31.25;;;;;13.38;71.26;100451.91;5078102;28;45265;-87
2021/09/25 03:21:32;;;;;;;;;35.00;30.75;;;;;13.18;71.43;100419.41;5078149;28;45228;-86
2021/09/25 03:23:58;;;;;;;;;31.25;27.25;;;;;13.34;71.84;100450.38;5076546;28;45167;-86
2021/09/25 03:26:23;;;;;;;;;36.25;32.25;;;;;13.37;71.63;100448.38;5078092;28;45208;-86
2021/09/25 03:28:49;;;;;;;;;34.50;32.50;;;;;13.44;71.64;100456.84;5076319;28;48351;-87
2021/09/25 03:31:14;;;;;;;;;30.50;29.50;;;;;13.40;71.55;100445.50;5078326;28;45372;-86
2021/09/25 03:33:39;;;;;;;;;34.25;30.50;;;;;13.42;71.79;100434.69;5077908;28;45332;-87
2021/09/25 03:36:05;;;;;;;;;35.00;32.25;;;;;13.43;71.74;100444.44;5059528;28;45271;-86
2021/09/25 03:38:31;;;;;;;;;36.75;30.50;;;;;13.51;71.92;100449.22;5076178;28;46863;-87
2021/09/25 03:40:58;;;;;;;;;37.00;32.25;;;;;13.54;71.63;100449.00;5077760;28;45340;-87
2021/09/25 03:43:23;;;;;;;;;38.50;32.75;;;;;13.49;71.78;100446.66;5076279;28;45250;-86
2021/09/25 03:45:49;;;;;;;;;41.00;35.00;;;;;13.55;71.51;100448.06;5077853;28;45247;-87
2021/09/25 03:48:15;;;;;;;;;36.75;31.50;;;;;13.50;71.72;100434.19;5059211;28;47327;-86
2021/09/25 03:50:41;;;;;;;;;36.75;31.00;;;;;13.37;71.71;100416.34;5077647;28;45225;-88
2021/09/25 03:53:07;;;;;;;;;31.00;27.00;;;;;13.45;71.34;100422.00;5077491;28;45213;-86
2021/09/25 03:55:32;;;;;;;;;31.25;27.25;;;;;13.45;70.67;100430.03;5076180;28;45267;-87
2021/09/25 03:57:58;;;;;;;;;35.75;30.25;;;;;13.30;70.50;100407.00;5077259;28;45406;-86
2021/09/25 04:00:24;;;;;;;;;36.75;32.75;;;;;13.51;70.78;100449.22;5077587;28;45200;-86
2021/09/25 04:02:51;;;;;;;;;31.00;27.25;;;;;13.48;70.14;100450.28;5077349;28;45282;-86
2021/09/25 04:05:17;;;;;;;;;30.50;27.00;;;;;13.40;70.45;100445.50;5077519;28;45228;-86
2021/09/25 04:07:43;;;;;;;;;29.00;27.00;;;;;13.36;70.55;100437.81;5077189;28;46422;-87
2021/09/25 04:10:08;;;;;;;;;29.50;27.75;;;;;13.30;70.16;100436.38;5058969;28;45281;-86
2021/09/25 04:12:34;;;;;;;;;30.50;27.50;;;;;13.32;70.07;100449.63;5077136;28;45177;-86
2021/09/25 04:15:00;;;;;;;;;34.50;29.75;;;;;13.25;70.71;100439.38;5077478;28;45234;-86
2021/09/25 04:17:25;;;;;;;;;27.75;26.25;;;;;13.20;70.67;100437.97;5077096;28;45566;-87
2021/09/25 04:19:50;;;;;;;;;33.25;30.00;;;;;13.19;70.79;100441.59;5075909;28;45273;-87
2021/09/25 04:22:16;;;;;;;;;30.25;27.25;;;;;13.04;71.14;100420.34;5058815;28;45143;-87
2021/09/25 04:24:42;;;;;;;;;30.25;28.50;;;;;13.20;71.16;100440.66;5077483;28;45214;-86
2021/09/25 04:27:08;;;;;;;;;34.75;31.25;;;;;13.17;71.51;100431.03;5068932;28;45540;-87
2021/09/25 04:29:33;;;;;;;;;33.25;28.75;;;;;13.19;71.36;100425.59;5058850;28;45815;-87
2021/09/25 04:31:59;;;;;;;;;32.50;30.25;;;;;13.11;71.78;100418.94;5070142;28;45201;-86
2021/09/25 04:34:24;;;;;;;;;33.50;31.00;;;;;12.96;71.33;100387.97;5057128;28;45270;-86
2021/09/25 04:36:49;;;;;;;;;31.25;29.75;;;;;12.97;71.81;100391.47;5056614;28;45321;-86
2021/09/25 04:39:15;;;;;;;;;30.75;27.75;;;;;13.08;71.66;100416.50;5056962;28;45238;-87
2021/09/25 04:41:40;;;;;;;;;30.00;27.75;;;;;13.21;71.63;100429.88;5055304;28;45172;-87
2021/09/25 04:44:06;;;;;;;;;34.25;31.25;;;;;13.19;71.62;100425.59;5056163;28;45262;-87
2021/09/25 04:46:32;;;;;;;;;39.50;30.75;;;;;13.22;70.94;100428.88;5038163;28;47024;-86
2021/09/25 04:48:57;;;;;;;;;34.75;30.75;;;;;13.02;71.81;100397.38;5054886;28;45207;-86
2021/09/25 04:51:22;;;;;;;;;34.75;31.00;;;;;13.04;71.59;100404.31;5056454;28;45377;-86
2021/09/25 04:53:48;;;;;;;;;33.50;28.75;;;;;13.10;71.56;100414.56;5056863;28;45199;-86
2021/09/25 04:56:13;;;;;;;;;36.50;30.75;;;;;13.22;71.41;100430.72;5054740;28;47450;-86
2021/09/25 04:58:39;;;;;;;;;36.75;29.00;;;;;13.23;71.11;100437.75;5055213;28;45154;-86
2021/09/25 05:01:05;;;;;;;;;35.00;30.25;;;;;13.20;71.11;100424.63;5056445;28;45204;-87
2021/09/25 05:03:32;;;;;;;;;30.75;29.50;;;;;13.21;71.33;100437.00;5055387;28;45305;-85
2021/09/25 05:05:58;;;;;;;;;45.25;35.25;;;;;13.10;70.52;100422.56;5056282;28;46407;-86
2021/09/25 05:08:23;;;;;;;;;32.75;30.25;;;;;13.09;70.66;100430.69;5056414;28;45250;-86
2021/09/25 05:10:49;;;;;;;;;33.00;29.50;;;;;12.90;70.70;100399.06;5056072;28;45233;-87
2021/09/25 05:13:14;;;;;;;;;31.75;30.50;;;;;13.10;70.95;100443.94;5056853;28;45194;-86
2021/09/25 05:15:39;;;;;;;;;27.75;25.00;;;;;12.89;70.70;100408.03;5056105;28;45291;-86
2021/09/25 05:18:05;;;;;;;;;29.50;28.50;;;;;12.90;70.51;100415.06;5054777;28;45266;-87
2021/09/25 05:20:30;;;;;;;;;35.50;29.25;;;;;12.95;70.38;100434.28;5056215;28;45223;-87
2021/09/25 05:22:55;;;;;;;;;28.75;26.00;;;;;12.86;70.61;100414.41;5056138;28;45270;-86
2021/09/25 05:25:21;;;;;;;;;28.00;27.25;;;;;12.90;70.66;100429.25;5037820;28;47980;-86
2021/09/25 05:27:48;;;;;;;;;33.25;30.50;;;;;12.80;70.30;100409.50;5054361;28;45233;-87
2021/09/25 05:30:15;;;;;;;;;32.50;27.75;;;;;12.81;70.50;100413.00;5038003;28;45212;-87
2021/09/25 05:32:41;;;;;;;;;26.50;24.50;;;;;12.82;70.43;100412.91;5054961;28;45254;-86
2021/09/25 05:35:07;;;;;;;;;29.00;29.00;;;;;12.73;70.37;100398.38;5055935;28;45283;-87
2021/09/25 05:37:32;;;;;;;;;26.00;23.50;;;;;12.79;70.41;100418.44;5055881;28;45265;-87
2021/09/25 05:39:58;;;;;;;;;23.25;23.25;;;;;12.75;70.59;100415.16;5059195;28;45490;-87
2021/09/25 05:42:25;;;;;;;;;24.50;24.50;;;;;12.75;70.51;100427.63;5057917;28;45336;-87
2021/09/25 05:44:51;;;;;;;;;27.25;25.25;;;;;12.64;70.51;100415.00;5041220;28;47265;-87
2021/09/25 05:47:17;;;;;;;;;22.25;20.25;;;;;12.64;70.56;100411.47;5040898;28;45707;-86
2021/09/25 05:49:44;;;;;;;;;23.00;22.50;;;;;12.59;70.06;100415.28;5059589;28;45204;-86
2021/09/25 05:52:10;;;;;;;;;24.00;24.00;;;;;12.51;70.03;100398.97;5058150;28;45334;-87
2021/09/25 05:54:36;;;;;;;;;26.25;25.25;;;;;12.48;69.92;100407.13;5059093;28;46631;-87
2021/09/25 05:57:02;;;;;;;;;24.25;23.25;;;;;12.40;70.60;100398.81;5040992;28;45692;-86
2021/09/25 05:59:27;;;;;;;;;27.50;25.50;;;;;12.32;70.32;100388.63;5058072;28;45121;-87
2021/09/25 06:01:53;;;;;;;;;21.75;21.75;;;;;12.32;70.22;100391.28;5041056;28;45461;-88
2021/09/25 06:04:18;;;;;;;;;22.50;20.75;;;;;12.37;70.32;100413.19;5058913;28;45534;-87
2021/09/25 06:06:43;;;;;;;;;26.00;23.25;;;;;12.30;70.63;100403.88;5059168;28;45258;-87
2021/09/25 06:09:08;;;;;;;;;23.00;21.50;;;;;12.50;70.20;100433.69;5061674;28;45208;-82
2021/09/25 06:11:34;;;;;;;;;25.75;23.25;;;;;12.39;70.41;100419.25;5059008;28;45185;-83
2021/09/25 06:13:59;;;;;;;;;26.50;23.75;;;;;12.48;70.83;100433.81;5059272;28;45400;-83
2021/09/25 06:16:25;;;;;;;;;29.50;25.00;;;;;12.52;70.75;100434.47;5058761;28;45362;-83
2021/09/25 06:18:50;;;;;;;;;23.75;22.75;;;;;12.55;71.06;100429.78;5058697;28;45279;-83
2021/09/25 06:21:15;;;;;;;;;22.25;21.00;;;;;12.59;71.01;100438.44;5058741;28;45208;-83
2021/09/25 06:23:40;;;;;;;;;27.75;24.50;;;;;12.67;70.84;100444.13;5058655;28;46372;-83
2021/09/25 06:26:08;;;;;;;;;23.50;20.50;;;;;12.72;70.84;100450.00;5056915;28;45251;-82
2021/09/25 06:28:33;;;;;;;;;26.25;21.00;;;;;12.79;71.04;100445.13;5058539;28;45282;-83
2021/09/25 06:30:59;;;;;;;;;20.25;20.00;;;;;12.90;71.38;100447.94;5055659;28;45370;-82
2021/09/25 06:33:24;;;;;;;;;26.50;24.50;;;;;13.01;70.87;100439.22;5037930;28;46397;-83
2021/09/25 06:35:49;;;;;;;;;24.00;22.50;;;;;13.10;70.58;100437.75;5038036;28;45227;-83
2021/09/25 06:38:15;;;;;;;;;28.50;25.00;;;;;13.17;70.18;100435.50;5056877;28;45242;-83
2021/09/25 06:40:40;;;;;;;;;26.00;25.00;;;;;13.24;70.31;100445.66;5078857;28;45253;-86
2021/09/25 06:43:05;;;;;;;;;30.75;26.00;;;;;13.27;70.18;100441.94;5077971;28;45177;-82
2021/09/25 06:45:32;;;;;;;;;31.00;27.25;;;;;13.30;70.25;100429.22;5078773;28;45151;-82
2021/09/25 06:47:59;;;;;;;;;30.00;29.25;;;;;13.38;70.07;100438.53;5078420;28;45214;-81
2021/09/25 06:50:25;;;;;;;;;27.00;24.50;;;;;13.48;70.60;100426.25;5077922;28;45183;-84
2021/09/25 06:52:50;;;;;;;;;27.00;26.50;;;;;13.70;70.02;100433.63;5078269;28;46148;-84
2021/09/25 06:55:16;;;;;;;;;29.25;28.00;;;;;13.92;70.06;100427.63;5078495;28;45280;-81
2021/09/25 06:57:41;;;;;;;;;27.50;26.00;;;;;14.10;69.62;100417.41;5078222;28;45279;-83
2021/09/25 07:00:07;;;;;;;;;31.00;24.75;;;;;14.37;69.34;100420.88;5078918;28;45241;-82
2021/09/25 07:02:37;;;;;;;;;31.00;29.75;;;;;14.58;68.36;100421.09;5078437;28;45226;-82
2021/09/25 07:05:03;;;;;;;;;27.25;23.75;;;;;14.74;68.22;100418.19;5078526;28;45675;-83
2021/09/25 07:07:28;;;;;;;;;30.25;28.25;;;;;14.90;67.76;100412.53;5078393;28;45298;-83
2021/09/25 07:09:53;;;;;;;;;28.00;25.25;;;;;14.99;67.84;100406.44;5078132;28;45352;-83
2021/09/25 07:12:19;;;;;;;;;25.25;24.00;;;;;15.08;67.63;100404.88;5077980;28;46152;-83
2021/09/25 07:14:44;;;;;;;;;26.00;24.75;;;;;15.08;67.74;100388.81;5078384;28;45156;-83
2021/09/25 07:17:09;;;;;;;;;25.75;25.75;;;;;15.29;67.99;100407.75;5077969;28;45437;-83
2021/09/25 07:19:35;;;;;;;;;30.25;28.25;;;;;15.34;67.51;100406.41;5078289;28;45139;-83
2021/09/25 07:22:00;;;;;;;;;30.75;27.25;;;;;15.29;67.69;100408.63;5077842;28;45912;-83
2021/09/25 07:24:26;;;;;;;;;28.75;27.75;;;;;15.24;67.61;100413.47;5077894;28;45187;-83
2021/09/25 07:26:51;;;;;;;;;29.00;26.50;;;;;15.11;67.64;100413.56;5077897;28;45172;-84
2021/09/25 07:29:16;;;;;;;;;22.50;22.00;;;;;15.07;68.02;100416.59;5078086;28;45309;-84
2021/09/25 07:31:41;;;;;;;;;28.00;26.50;;;;;15.10;68.26;100413.69;5077917;28;45392;-83
2021/09/25 07:34:07;;;;;;;;;27.50;26.25;;;;;15.12;68.20;100404.56;5077820;28;45313;-84
2021/09/25 07:36:32;;;;;;;;;31.75;29.50;;;;;15.34;68.39;100408.25;5077873;28;45289;-83
2021/09/25 07:38:57;;;;;;;;;31.75;26.50;;;;;15.50;68.27;100414.09;5077613;28;45230;-83
2021/09/25 07:41:23;;;;;;;;;26.75;23.50;;;;;15.70;67.92;100409.88;5077882;28;46347;-83
2021/09/25 07:43:50;;;;;;;;;29.25;27.25;;;;;15.89;67.36;100408.44;5077410;28;45289;-84
2021/09/25 07:46:15;;;;;;;;;25.50;24.25;;;;;16.03;67.20;100410.00;5077744;28;45242;-83
2021/09/25 07:48:41;;;;;;;;;31.00;28.50;;;;;16.19;66.92;100412.31;5077887;28;45206;-84
2021/09/25 07:51:06;;;;;;;;;27.00;25.75;;;;;16.35;66.99;100412.75;5077570;28;45914;-84
2021/09/25 07:53:31;;;;;;;;;26.25;23.00;;;;;16.51;66.75;100393.53;5077602;28;45222;-84
2021/09/25 07:55:57;;;;;;;;;31.25;27.25;;;;;16.86;66.32;100399.63;5077621;28;45162;-83
2021/09/25 07:58:22;;;;;;;;;27.25;25.75;;;;;17.11;65.40;100394.91;5077610;28;45227;-84
2021/09/25 08:00:48;;;;;;;;;40.75;35.50;;;;;17.20;65.16;100389.59;5077120;28;45996;-84
2021/09/25 08:03:14;;;;;;;;;32.75;31.25;;;;;17.41;65.10;100400.34;5077608;28;45517;-83
2021/09/25 08:05:39;;;;;;;;;39.50;31.50;;;;;17.58;64.51;100409.59;5077582;28;45207;-83
2021/09/25 08:08:04;;;;;;;;;26.00;26.00;;;;;17.69;64.12;100407.81;5077039;28;45214;-83
2021/09/25 08:10:30;;;;;;;;;28.00;27.00;;;;;17.77;63.83;100413.34;5077252;28;45982;-84
2021/09/25 08:12:55;;;;;;;;;31.25;27.50;;;;;17.81;63.08;100401.34;5075658;28;45282;-83
2021/09/25 08:15:21;;;;;;;;;29.00;25.50;;;;;17.98;63.72;100405.25;5067973;28;45727;-84
2021/09/25 08:17:46;;;;;;;;;25.00;23.25;;;;;18.14;63.33;100393.13;5066132;28;45305;-83
2021/09/25 08:20:14;;;;;;;;;23.50;21.00;;;;;18.46;63.29;100390.22;5056538;28;45255;-83
2021/09/25 08:22:43;;;;;;;;;28.75;25.00;;;;;18.72;62.34;100385.13;5065943;28;45270;-86
2021/09/25 08:25:09;;;;;;;;;23.50;22.50;;;;;18.96;62.08;100383.88;5060293;28;45207;-87
2021/09/25 08:27:35;;;;;;;;;27.75;26.25;;;;;19.02;61.31;100385.97;5055653;28;45303;-84
2021/09/25 08:30:03;;;;;;;;;27.50;26.00;;;;;19.20;61.66;100390.66;5069144;28;47009;-85
2021/09/25 08:32:28;;;;;;;;;29.50;28.25;;;;;19.31;61.31;100388.63;5058339;28;45604;-85
2021/09/25 08:34:53;;;;;;;;;26.00;23.25;;;;;19.41;60.89;100388.59;5059842;28;45530;-84
2021/09/25 08:37:18;;;;;;;;;32.50;30.75;;;;;19.49;60.68;100396.78;5069445;28;45383;-83
2021/09/25 08:39:44;;;;;;;;;25.25;23.50;;;;;19.42;60.59;100398.38;5066766;28;45231;-83
2021/09/25 08:42:16;;;;;;;;;27.00;26.00;;;;;19.34;60.59;100390.19;5060574;28;45249;-84
2021/09/25 08:44:43;;;;;;;;;27.50;25.50;;;;;19.42;60.88;100389.44;5072219;28;45333;-84
2021/09/25 08:47:08;;;;;;;;;35.75;30.75;;;;;19.45;60.42;100381.94;5059510;28;45254;-83
2021/09/25 08:49:34;;;;;;;;;29.25;28.25;;;;;19.59;61.03;100390.53;5038112;28;47208;-84
2021/09/25 08:51:59;;;;;;;;;27.50;27.00;;;;;19.68;60.43;100389.63;5056684;28;45305;-84
2021/09/25 08:54:24;;;;;;;;;28.50;25.00;;;;;19.69;60.34;100387.78;5064218;28;45220;-83
2021/09/25 08:56:50;;;;;;;;;30.00;26.50;;;;;19.69;60.59;100379.72;5060929;28;45206;-83
2021/09/25 08:59:15;;;;;;;;;24.25;24.25;;;;;19.67;60.10;100383.38;5062246;28;45178;-86
2021/09/25 09:01:43;;;;;;;;;30.25;28.50;;;;;19.63;60.21;100389.25;5062784;28;45136;-84
2021/09/25 09:04:09;;;;;;;;;34.50;28.50;;;;;19.54;60.85;100390.09;5056446;28;45171;-85
2021/09/25 09:06:36;;;;;;;;;31.50;27.75;;;;;19.47;60.31;100385.31;5070334;28;45411;-87
2021/09/25 09:09:05;;;;;;;;;26.25;25.25;;;;;19.46;61.36;100382.75;5075963;28;45312;-86
2021/09/25 09:11:31;;;;;;;;;31.00;26.75;;;;;19.49;60.52;100395.94;5074704;28;45833;-84
2021/09/25 09:14:00;;;;;;;;;34.50;32.25;;;;;19.55;60.59;100399.91;5075687;28;45252;-87
2021/09/25 09:16:27;;;;;;;;;38.75;33.25;;;;;19.79;60.77;100402.13;5076571;28;45245;-87
2021/09/25 09:18:53;;;;;;;;;40.00;34.25;;;;;20.31;59.22;100407.81;5058103;28;45989;-85
2021/09/25 09:21:29;;;;;;;;;37.50;32.75;;;;;20.89;58.04;100388.63;5060064;28;45198;-89
2021/09/25 09:24:00;;;;;;;;;39.50;34.25;;;;;21.42;56.65;100390.38;5069398;28;45313;-90
2021/09/25 09:26:38;;;;;;;;;39.75;32.75;;;;;21.59;55.92;100398.59;5063343;28;45433;-89
2021/09/25 09:29:06;;;;;;;;;35.75;30.75;;;;;21.57;56.23;100403.34;5075916;28;45357;-89
2021/09/25 09:31:33;;;;;;;;;43.75;35.50;;;;;21.61;55.97;100405.56;5063122;28;45163;-90
2021/09/25 09:34:01;;;;;;;;;33.75;31.75;;;;;21.68;56.20;100409.31;5074139;28;45205;-94
2021/09/25 09:36:26;;;;;;;;;40.75;35.75;;;;;21.83;55.16;100397.88;5064421;28;45195;-94
2021/09/25 09:41:31;;;;;;;;;35.50;32.00;;;;;22.40;54.63;100389.13;4751101;26;45196;-87
2021/09/25 09:44:00;;;;;;;;;37.50;33.50;;;;;22.72;54.25;100388.34;4997975;28;45287;-88
2021/09/25 09:46:30;;;;;;;;;36.00;32.25;;;;;23.06;53.42;100381.91;4998423;28;45249;-87
2021/09/25 09:48:55;;;;;;;;;39.00;32.50;;;;;23.31;52.96;100370.19;5015559;28;45390;-86
2021/09/25 09:51:38;;;;;;;;;43.00;36.00;;;;;23.72;52.04;100378.22;5015797;28;45375;-87
2021/09/25 09:54:21;;;;;;;;;37.50;33.25;;;;;23.98;51.62;100375.25;5015815;28;45292;-87
2021/09/25 09:56:47;;;;;;;;;41.75;35.00;;;;;24.17;51.10;100365.84;5016135;28;45466;-87
2021/09/25 09:59:13;;;;;;;;;34.25;32.50;;;;;24.46;50.60;100367.84;5015702;28;45546;-88
2021/09/25 10:01:40;;;;;;;;;39.50;34.75;;;;;24.80;49.71;100358.44;5016138;28;45315;-87
2021/09/25 10:04:06;;;;;;;;;36.50;31.50;;;;;25.03;49.57;100367.63;5016038;28;45339;-87
2021/09/25 10:06:35;;;;;;;;;37.50;32.75;;;;;25.26;48.79;100362.94;5015071;28;45371;-87
2021/09/25 10:09:02;;;;;;;;;32.75;31.50;;;;;25.41;48.52;100370.31;5015960;28;45401;-87
2021/09/25 10:11:29;;;;;;;;;36.00;32.75;;;;;25.58;48.26;100351.91;5016178;28;45220;-87
2021/09/25 10:13:54;;;;;;;;;38.75;33.75;;;;;25.81;47.59;100355.38;4998071;28;45271;-87
2021/09/25 10:16:21;;;;;;;;;32.75;31.50;;;;;26.00;46.39;100356.69;5016319;28;45193;-87
2021/09/25 10:18:46;;;;;;;;;33.50;31.75;;;;;26.14;46.36;100373.19;5015497;28;45598;-87
2021/09/25 10:21:13;;;;;;;;;32.75;31.00;;;;;26.20;46.04;100371.59;4997930;28;45411;-87
2021/09/25 10:23:50;;;;;;;;;39.25;32.25;;;;;26.25;46.49;100358.22;5015601;28;45219;-87
2021/09/25 10:26:17;;;;;;;;;40.25;35.50;;;;;26.44;45.99;100352.13;5000393;28;45163;-87
2021/09/25 10:28:56;;;;;;;;;39.50;33.00;;;;;26.80;45.81;100362.16;5019369;28;45674;-87
2021/09/25 10:31:22;;;;;;;;;36.50;33.00;;;;;27.01;45.11;100346.81;5017764;28;46202;-87
2021/09/25 10:34:08;;;;;;;;;37.50;33.75;;;;;27.37;45.43;100354.00;5019231;28;45243;-88
2021/09/25 10:36:43;;;;;;;;;37.00;33.00;;;;;27.66;43.88;100355.66;5001425;28;45172;-88
2021/09/25 10:39:36;;;;;;;;;40.50;33.25;;;;;27.74;44.02;100362.81;5018890;28;45706;-88
2021/09/25 10:42:12;;;;;;;;;38.00;32.75;;;;;27.84;43.10;100357.81;5015683;28;45874;-87
2021/09/25 10:44:46;;;;;;;;;34.00;31.25;;;;;27.69;43.37;100351.66;5019057;28;45272;-87
2021/09/25 10:47:18;;;;;;;;;33.50;30.25;;;;;27.62;43.50;100346.19;5019224;28;45341;-87
2021/09/25 10:49:54;;;;;;;;;35.25;29.50;;;;;27.78;43.00;100357.81;5018716;28;45236;-88
2021/09/25 10:52:22;;;;;;;;;31.75;30.00;;;;;27.67;43.00;100345.56;5018777;28;45647;-87
2021/09/25 10:55:22;;;;;;;;;35.75;30.25;;;;;27.63;43.08;100341.53;5019057;28;45192;-87
2021/09/25 10:58:12;;;;;;;;;32.25;29.50;;;;;27.63;43.47;100339.66;5019263;28;45222;-87
2021/09/25 11:01:09;;;;;;;;;32.75;30.50;;;;;27.70;43.09;100345.97;5018933;28;45460;-87
2021/09/25 11:03:40;;;;;;;;;33.25;29.25;;;;;27.85;43.03;100328.63;5019140;28;45085;-87
2021/09/25 11:06:07;;;;;;;;;31.00;27.50;;;;;28.06;42.73;100333.13;5019211;28;45275;-87
2021/09/25 11:08:34;;;;;;;;;39.75;32.00;;;;;28.29;41.87;100329.19;5019113;28;45319;-88
2021/09/25 11:11:08;;;;;;;;;34.75;31.00;;;;;28.46;41.80;100327.78;5018402;28;46552;-87